createdAt,value
2022-10-02T00:00:17.757Z,84.41
2022-10-02T00:02:50.773Z,84.44
2022-10-02T00:05:24.078Z,84.49
2022-10-02T00:08:02.031Z,84.26
2022-10-02T00:10:34.199Z,84.21
2022-10-02T00:13:05.551Z,84.10
2022-10-02T00:15:36.765Z,84.07
2022-10-02T00:18:10.718Z,84.12
2022-10-02T00:20:44.822Z,84.31
2022-10-02T00:23:20.506Z,84.29
2022-10-02T00:25:56.994Z,84.30
2022-10-02T00:28:29.550Z,84.43
2022-10-02T00:31:16.776Z,84.47
2022-10-02T00:33:58.862Z,84.51
2022-10-02T00:36:36.140Z,84.35
2022-10-02T00:39:19.760Z,84.11
2022-10-02T00:42:19.337Z,84.14
2022-10-02T00:44:59.381Z,84.00
2022-10-02T00:47:39.666Z,84.10
2022-10-02T00:50:23.856Z,83.95
2022-10-02T00:53:06.891Z,83.91
2022-10-02T00:55:44.427Z,83.99
2022-10-02T00:58:40.773Z,84.00
2022-10-02T01:01:12.765Z,84.03
2022-10-02T01:03:41.990Z,84.07
2022-10-02T01:06:10.540Z,84.33
2022-10-02T01:08:38.924Z,84.23
2022-10-02T01:11:08.664Z,84.36
2022-10-02T01:13:36.499Z,84.09
2022-10-02T01:16:05.752Z,83.62
2022-10-02T01:18:33.474Z,83.11
2022-10-02T01:21:06.219Z,82.76
2022-10-02T01:23:42.154Z,82.49
2022-10-02T01:26:11.534Z,83.17
2022-10-02T01:28:39.474Z,83.22
2022-10-02T01:31:10.603Z,83.41
2022-10-02T01:33:41.544Z,83.15
2022-10-02T01:36:10.296Z,82.95
2022-10-02T01:38:38.980Z,83.01
2022-10-02T01:41:07.531Z,83.29
2022-10-02T01:43:40.130Z,83.04
2022-10-02T01:46:32.521Z,83.26
2022-10-02T01:49:14.978Z,82.91
2022-10-02T01:52:06.547Z,82.91
2022-10-02T01:54:47.530Z,82.42
2022-10-02T01:57:25.121Z,82.90
2022-10-02T02:00:07.304Z,82.76
2022-10-02T02:02:49.397Z,83.24
2022-10-02T02:05:27.488Z,82.89
2022-10-02T02:08:02.874Z,83.22
2022-10-02T02:10:46.159Z,82.65
2022-10-02T02:13:19.503Z,82.99
2022-10-02T02:15:55.439Z,83.39
2022-10-02T02:18:29.257Z,83.17
2022-10-02T02:21:00.370Z,83.33
2022-10-02T02:23:33.335Z,83.23
2022-10-02T02:26:05.557Z,83.15
2022-10-02T02:28:35.961Z,83.29
2022-10-02T02:31:07.760Z,83.46
2022-10-02T02:33:41.040Z,83.69
2022-10-02T02:36:13.723Z,83.89
2022-10-02T02:38:45.902Z,84.51
2022-10-02T02:41:17.752Z,84.55
2022-10-02T02:43:49.799Z,84.83
2022-10-02T02:46:24.523Z,85.11
2022-10-02T02:49:04.587Z,85.33
2022-10-02T02:51:37.364Z,85.53
2022-10-02T02:54:11.144Z,85.61
2022-10-02T02:56:39.422Z,85.73
2022-10-02T02:59:11.505Z,85.83
2022-10-02T03:01:41.147Z,85.73
2022-10-02T03:04:12.913Z,86.25
2022-10-02T03:06:43.644Z,86.39
2022-10-02T03:09:15.461Z,86.74
2022-10-02T03:11:55.001Z,87.22
2022-10-02T03:14:51.244Z,87.43
2022-10-02T03:17:33.795Z,87.79
2022-10-02T03:20:11.482Z,87.90
2022-10-02T03:22:46.578Z,87.65
2022-10-02T03:25:21.270Z,87.84
2022-10-02T03:27:54.643Z,88.13
2022-10-02T03:30:24.361Z,88.42
2022-10-02T03:32:56.218Z,88.15
2022-10-02T03:35:25.839Z,88.42
2022-10-02T03:37:57.141Z,88.61
2022-10-02T03:40:26.027Z,88.53
2022-10-02T03:42:58.143Z,88.72
2022-10-02T03:45:49.344Z,88.21
2022-10-02T03:48:15.566Z,88.28
2022-10-02T03:50:43.556Z,88.32
2022-10-02T03:53:15.907Z,88.88
2022-10-02T03:55:48.100Z,88.27
2022-10-02T03:58:17.987Z,87.81
2022-10-02T04:00:53.609Z,87.50
2022-10-02T04:03:26.461Z,87.48
2022-10-02T04:05:59.387Z,87.55
2022-10-02T04:08:31.479Z,87.33
2022-10-02T04:11:05.978Z,87.92
2022-10-02T04:13:37.661Z,87.57
2022-10-02T04:16:11.426Z,87.58
2022-10-02T04:18:48.513Z,87.27
2022-10-02T04:21:34.908Z,87.84
2022-10-02T04:24:10.299Z,88.41
2022-10-02T04:26:42.922Z,88.18
2022-10-02T04:29:19.343Z,87.79
2022-10-02T04:31:52.365Z,88.28
2022-10-02T04:34:21.987Z,88.16
2022-10-02T04:37:03.716Z,88.00
2022-10-02T04:39:46.822Z,87.84
2022-10-02T04:42:24.299Z,87.61
2022-10-02T04:45:03.435Z,87.98
2022-10-02T04:48:06.503Z,88.05
2022-10-02T04:50:47.539Z,88.33
2022-10-02T04:53:26.143Z,88.50
2022-10-02T04:56:08.442Z,88.78
2022-10-02T04:58:54.522Z,88.79
2022-10-02T05:01:32.627Z,88.98
2022-10-02T05:04:20.541Z,88.78
2022-10-02T05:07:09.099Z,89.44
2022-10-02T05:09:45.658Z,89.44
2022-10-02T05:12:33.553Z,90.00
2022-10-02T05:15:27.095Z,89.72
2022-10-02T05:18:07.645Z,90.00
2022-10-02T05:21:03.653Z,90.05
2022-10-02T05:23:46.815Z,90.42
2022-10-02T05:26:31.532Z,90.76
2022-10-02T05:29:23.790Z,90.26
2022-10-02T05:32:07.921Z,89.74
2022-10-02T05:34:46.987Z,89.58
2022-10-02T05:37:32.182Z,89.27
2022-10-02T05:40:06.843Z,89.33
2022-10-02T05:42:42.329Z,88.89
2022-10-02T05:45:20.309Z,89.08
2022-10-02T05:47:49.814Z,88.61
2022-10-02T05:50:19.763Z,88.30
2022-10-02T05:52:55.187Z,88.21
2022-10-02T05:55:29.958Z,87.02
2022-10-02T05:58:04.306Z,87.23
2022-10-02T06:00:38.496Z,87.19
2022-10-02T06:03:13.996Z,87.12
2022-10-02T06:05:50.117Z,87.27
2022-10-02T06:08:23.200Z,87.02
2022-10-02T06:10:56.339Z,87.25
2022-10-02T06:13:28.338Z,87.49
2022-10-02T06:16:05.857Z,87.31
2022-10-02T06:18:38.404Z,87.61
2022-10-02T06:21:11.608Z,87.71
2022-10-02T06:23:41.706Z,87.34
2022-10-02T06:26:16.256Z,87.28
2022-10-02T06:28:49.739Z,86.78
2022-10-02T06:31:22.688Z,86.67
2022-10-02T06:33:53.390Z,86.64
2022-10-02T06:36:34.158Z,86.45
2022-10-02T06:39:17.666Z,86.44
2022-10-02T06:41:58.730Z,86.93
2022-10-02T06:44:35.517Z,86.96
2022-10-02T06:47:22.465Z,87.42
2022-10-02T06:50:05.835Z,86.85
2022-10-02T06:52:45.036Z,86.75
2022-10-02T06:55:23.482Z,86.41
2022-10-02T06:58:05.505Z,86.32
2022-10-02T07:00:38.091Z,86.89
2022-10-02T07:03:23.072Z,87.36
2022-10-02T07:06:12.956Z,87.52
2022-10-02T07:09:04.204Z,87.22
2022-10-02T07:11:39.117Z,87.28
2022-10-02T07:14:27.955Z,86.76
2022-10-02T07:17:20.321Z,86.30
2022-10-02T07:20:12.332Z,86.07
2022-10-02T07:22:53.086Z,85.80
2022-10-02T07:25:35.734Z,85.31
2022-10-02T07:28:11.898Z,85.65
2022-10-02T07:30:48.726Z,85.00
2022-10-02T07:33:29.890Z,85.13
2022-10-02T07:36:04.021Z,84.42
2022-10-02T07:38:47.025Z,85.07
2022-10-02T07:41:35.915Z,86.08
2022-10-02T07:44:14.182Z,86.33
2022-10-02T07:46:54.661Z,86.76
2022-10-02T07:49:39.882Z,87.46
2022-10-02T07:52:17.935Z,87.76
2022-10-02T07:54:56.426Z,88.18
2022-10-02T07:57:30.143Z,88.29
2022-10-02T08:00:03.627Z,88.16
2022-10-02T08:02:47.865Z,88.39
2022-10-02T08:05:20.070Z,88.47
2022-10-02T08:07:50.883Z,88.17
2022-10-02T08:10:25.667Z,88.48
2022-10-02T08:13:04.168Z,88.53
2022-10-02T08:15:38.504Z,88.36
2022-10-02T08:18:33.616Z,88.04
2022-10-02T08:21:04.231Z,88.63
2022-10-02T08:23:34.295Z,87.90
2022-10-02T08:26:07.940Z,88.02
2022-10-02T08:28:41.052Z,88.28
2022-10-02T08:31:11.788Z,88.09
2022-10-02T08:33:41.522Z,88.36
2022-10-02T08:36:39.061Z,88.38
2022-10-02T08:39:23.573Z,88.24
2022-10-02T08:42:30.760Z,87.59
2022-10-02T08:45:26.600Z,87.49
2022-10-02T08:48:40.411Z,87.54
2022-10-02T08:52:00.252Z,87.69
2022-10-02T08:55:00.166Z,87.03
2022-10-02T08:57:57.780Z,86.40
2022-10-02T09:00:35.982Z,86.20
2022-10-02T09:03:45.701Z,86.24
2022-10-02T09:06:52.284Z,86.59
2022-10-02T09:09:57.300Z,86.09
2022-10-02T09:12:44.417Z,86.16
2022-10-02T09:15:23.828Z,85.94
2022-10-02T09:18:14.241Z,86.10
2022-10-02T09:20:57.875Z,86.27
2022-10-02T09:24:05.361Z,85.76
2022-10-02T09:27:18.191Z,84.26
2022-10-02T09:30:17.688Z,83.09
2022-10-02T09:33:18.064Z,83.07
2022-10-02T09:36:29.070Z,83.09
2022-10-02T09:39:51.221Z,83.04
2022-10-02T09:42:38.850Z,83.08
2022-10-02T09:45:32.332Z,82.85
2022-10-02T09:48:30.257Z,82.62
2022-10-02T09:51:32.191Z,82.33
2022-10-02T09:54:51.742Z,82.29
2022-10-02T09:58:10.275Z,81.25
2022-10-02T10:00:59.831Z,81.21
2022-10-02T10:03:50.709Z,81.48
2022-10-02T10:07:03.441Z,82.13
2022-10-02T10:09:52.982Z,82.04
2022-10-02T10:12:59.760Z,82.30
2022-10-02T10:16:11.429Z,82.38
2022-10-02T10:19:02.386Z,82.66
2022-10-02T10:22:06.003Z,83.21
2022-10-02T10:25:02.025Z,83.59
2022-10-02T10:27:55.173Z,83.38
2022-10-02T10:30:55.822Z,83.59
2022-10-02T10:33:47.435Z,83.81
2022-10-02T10:36:55.545Z,83.45
2022-10-02T10:40:00.295Z,83.35
2022-10-02T10:43:16.516Z,83.73
2022-10-02T10:46:13.709Z,83.51
2022-10-02T10:48:56.292Z,83.54
2022-10-02T10:51:35.222Z,83.29
2022-10-02T10:54:22.747Z,83.14
2022-10-02T10:56:55.621Z,82.63
2022-10-02T11:00:04.552Z,82.46
2022-10-02T11:02:54.517Z,82.69
2022-10-02T11:06:06.760Z,81.86
2022-10-02T11:09:05.778Z,81.36
2022-10-02T11:11:45.552Z,81.25
2022-10-02T11:14:26.129Z,80.79
2022-10-02T11:17:25.669Z,80.61
2022-10-02T11:20:08.292Z,80.02
2022-10-02T11:23:16.756Z,79.99
2022-10-02T11:26:11.610Z,80.87
2022-10-02T11:29:04.974Z,81.27
2022-10-02T11:31:55.625Z,81.74
2022-10-02T11:34:57.792Z,81.90
2022-10-02T11:37:52.097Z,82.40
2022-10-02T11:40:46.219Z,82.11
2022-10-02T11:43:51.284Z,80.85
2022-10-02T11:46:37.017Z,80.57
2022-10-02T11:49:28.810Z,79.96
2022-10-02T11:52:23.138Z,79.54
2022-10-02T11:55:22.222Z,79.91
2022-10-02T11:57:53.623Z,79.57
2022-10-02T12:00:55.555Z,78.99
2022-10-02T12:03:31.167Z,78.45
2022-10-02T12:06:05.361Z,77.61
2022-10-02T12:08:46.926Z,77.74
2022-10-02T12:11:21.847Z,76.67
2022-10-02T12:14:03.552Z,76.10
2022-10-02T12:16:44.054Z,75.59
2022-10-02T12:19:24.061Z,73.85
2022-10-02T12:22:23.586Z,72.69
2022-10-02T12:25:17.599Z,72.73
2022-10-02T12:27:56.460Z,73.27
2022-10-02T12:30:29.108Z,72.08
2022-10-02T12:33:08.577Z,71.03
2022-10-02T12:35:51.539Z,72.68
2022-10-02T12:38:33.144Z,72.25
2022-10-02T12:41:10.079Z,73.10
2022-10-02T12:44:02.074Z,72.77
2022-10-02T12:47:07.191Z,72.17
2022-10-02T12:49:47.301Z,72.71
2022-10-02T12:52:47.100Z,73.07
2022-10-02T12:55:47.462Z,73.60
2022-10-02T12:58:28.474Z,74.43
2022-10-02T13:01:30.752Z,75.50
2022-10-02T13:04:19.782Z,75.40
2022-10-02T13:07:14.731Z,74.40
2022-10-02T13:09:53.256Z,74.38
2022-10-02T13:12:42.304Z,72.96
2022-10-02T13:15:27.546Z,73.58
2022-10-02T13:18:04.526Z,73.80
2022-10-02T13:20:39.871Z,74.06
2022-10-02T13:23:22.899Z,74.80
2022-10-02T13:25:59.778Z,75.33
2022-10-02T13:28:43.854Z,74.95
2022-10-02T13:31:18.330Z,75.61
2022-10-02T13:34:11.786Z,75.91
2022-10-02T13:36:55.705Z,75.81
2022-10-02T13:39:35.352Z,75.96
2022-10-02T13:42:24.833Z,75.87
2022-10-02T13:45:00.567Z,76.18
2022-10-02T13:47:51.556Z,76.48
2022-10-02T13:50:30.774Z,76.73
2022-10-02T13:53:11.647Z,77.23
2022-10-02T13:55:46.326Z,77.03
2022-10-02T13:58:31.900Z,76.89
2022-10-02T14:01:24.663Z,76.60
2022-10-02T14:04:15.930Z,76.79
2022-10-02T14:06:50.904Z,76.91
2022-10-02T14:09:34.503Z,76.76
2022-10-02T14:12:20.420Z,76.95
2022-10-02T14:15:07.439Z,76.99
2022-10-02T14:17:48.645Z,76.47
2022-10-02T14:20:28.158Z,76.86
2022-10-02T14:23:14.425Z,76.89
2022-10-02T14:25:59.542Z,77.15
2022-10-02T14:28:44.963Z,77.28
2022-10-02T14:31:33.594Z,77.42
2022-10-02T14:34:18.757Z,77.10
2022-10-02T14:36:53.526Z,77.67
2022-10-02T14:39:32.964Z,77.55
2022-10-02T14:42:15.757Z,77.72
2022-10-02T14:45:09.265Z,78.09
2022-10-02T14:47:55.962Z,78.38
2022-10-02T14:50:40.303Z,78.24
2022-10-02T14:53:32.976Z,78.98
2022-10-02T14:56:36.167Z,78.64
2022-10-02T14:59:17.705Z,78.53
2022-10-02T15:01:53.861Z,78.48
2022-10-02T15:04:31.730Z,78.36
2022-10-02T15:07:07.287Z,78.44
2022-10-02T15:09:48.965Z,78.81
2022-10-02T15:12:20.534Z,78.89
2022-10-02T15:15:03.521Z,78.57
2022-10-02T15:17:55.104Z,78.50
2022-10-02T15:20:48.211Z,78.22
2022-10-02T15:23:40.480Z,78.02
2022-10-02T15:26:28.974Z,77.93
2022-10-02T15:29:10.543Z,78.11
2022-10-02T15:31:45.144Z,78.57
2022-10-02T15:34:23.774Z,78.99
2022-10-02T15:37:06.049Z,79.77
2022-10-02T15:40:00.859Z,80.31
2022-10-02T15:42:48.126Z,79.96
2022-10-02T15:45:46.401Z,80.07
2022-10-02T15:48:35.770Z,79.80
2022-10-02T15:51:17.087Z,79.69
2022-10-02T15:53:55.497Z,79.64
2022-10-02T15:56:40.460Z,79.68
2022-10-02T15:59:24.671Z,79.61
2022-10-02T16:02:09.023Z,79.46
2022-10-02T16:04:49.927Z,79.61
2022-10-02T16:07:37.019Z,79.91
2022-10-02T16:10:18.242Z,79.98
2022-10-02T16:12:59.108Z,79.99
2022-10-02T16:15:32.821Z,80.67
2022-10-02T16:18:20.692Z,80.65
2022-10-02T16:21:07.336Z,80.78
2022-10-02T16:23:54.742Z,81.26
2022-10-02T16:26:36.400Z,81.61
2022-10-02T16:29:20.052Z,81.40
2022-10-02T16:32:05.779Z,81.39
2022-10-02T16:34:44.261Z,81.59
2022-10-02T16:37:25.264Z,81.90
2022-10-02T16:40:00.369Z,82.13
2022-10-02T16:42:40.052Z,83.15
2022-10-02T16:45:35.536Z,83.44
2022-10-02T16:48:10.431Z,84.43
2022-10-02T16:50:52.714Z,84.65
2022-10-02T16:53:29.413Z,85.13
2022-10-02T16:56:06.195Z,85.69
2022-10-02T16:58:43.965Z,85.94
2022-10-02T17:01:23.854Z,86.21
2022-10-02T17:04:13.082Z,86.70
2022-10-02T17:06:42.713Z,87.13
2022-10-02T17:09:18.726Z,87.57
2022-10-02T17:11:51.300Z,87.77
2022-10-02T17:14:25.241Z,87.89
2022-10-02T17:16:57.641Z,88.14
2022-10-02T17:19:29.452Z,88.46
2022-10-02T17:22:03.425Z,88.92
2022-10-02T17:24:48.391Z,89.17
2022-10-02T17:27:20.204Z,89.64
2022-10-02T17:29:58.687Z,89.77
2022-10-02T17:32:48.069Z,90.09
2022-10-02T17:35:18.492Z,90.06
2022-10-02T17:38:14.604Z,90.40
2022-10-02T17:40:51.546Z,90.42
2022-10-02T17:43:25.555Z,90.60
2022-10-02T17:46:01.839Z,90.64
2022-10-02T17:48:45.599Z,90.88
2022-10-02T17:54:52.538Z,91.23
2022-10-02T17:57:38.857Z,91.36
2022-10-02T18:00:14.403Z,91.61
2022-10-02T18:03:10.192Z,91.80
2022-10-02T18:05:51.800Z,91.65
2022-10-02T18:08:40.991Z,91.51
2022-10-02T18:11:10.173Z,91.13
2022-10-02T18:13:50.949Z,90.81
2022-10-02T18:16:33.291Z,90.94
2022-10-02T18:19:23.352Z,90.79
2022-10-02T18:22:04.721Z,91.01
2022-10-02T18:24:52.919Z,91.18
2022-10-02T18:27:38.435Z,91.48
2022-10-02T18:30:17.080Z,91.60
2022-10-02T18:33:05.301Z,91.98
2022-10-02T18:35:45.395Z,91.98
2022-10-02T18:38:18.109Z,91.93
2022-10-02T18:40:55.223Z,92.03
2022-10-02T18:43:41.257Z,91.88
2022-10-02T18:46:22.347Z,91.69
2022-10-02T18:49:08.494Z,91.80
2022-10-02T18:52:02.547Z,92.08
2022-10-02T18:54:41.003Z,92.08
2022-10-02T18:57:24.269Z,91.67
2022-10-02T18:59:59.516Z,91.14
2022-10-02T19:02:41.747Z,91.11
2022-10-02T19:05:24.406Z,90.98
2022-10-02T19:07:59.073Z,90.85
2022-10-02T19:10:40.196Z,90.58
2022-10-02T19:13:17.950Z,90.67
2022-10-02T19:15:48.424Z,90.28
2022-10-02T19:18:19.693Z,90.13
2022-10-02T19:20:53.339Z,90.34
2022-10-02T19:23:28.891Z,90.36
2022-10-02T19:26:02.843Z,90.04
2022-10-02T19:28:32.931Z,89.84
2022-10-02T19:31:03.817Z,89.81
2022-10-02T19:33:45.069Z,89.58
2022-10-02T19:36:18.866Z,89.82
2022-10-02T19:38:53.031Z,90.02
2022-10-02T19:41:22.735Z,90.07
2022-10-02T19:43:56.974Z,90.09
2022-10-02T19:46:38.964Z,90.24
2022-10-02T19:49:13.675Z,90.32
2022-10-02T19:51:46.596Z,90.67
2022-10-02T19:54:21.134Z,90.97
2022-10-02T19:56:50.305Z,91.18
2022-10-02T19:59:20.394Z,91.63
2022-10-02T20:01:52.583Z,91.73
2022-10-02T20:04:23.718Z,91.57
2022-10-02T20:06:54.843Z,91.80
2022-10-02T20:09:28.258Z,91.95
2022-10-02T20:12:01.700Z,92.00
2022-10-02T20:14:32.676Z,92.07
2022-10-02T20:17:12.625Z,92.41
2022-10-02T20:19:48.185Z,92.33
2022-10-02T20:22:31.594Z,92.70
2022-10-02T20:25:04.778Z,92.55
2022-10-02T20:27:41.713Z,92.66
2022-10-02T20:30:14.144Z,92.70
2022-10-02T20:32:48.088Z,92.43
2022-10-02T20:35:22.279Z,92.36
2022-10-02T20:37:53.360Z,92.13
2022-10-02T20:40:25.870Z,91.93
2022-10-02T20:43:00.174Z,92.00
2022-10-02T20:45:36.507Z,91.61
2022-10-02T20:49:03.131Z,91.42
2022-10-02T20:51:45.015Z,90.92
2022-10-02T20:54:32.981Z,90.39
2022-10-02T20:57:56.424Z,90.61
2022-10-02T21:00:25.000Z,90.52
2022-10-02T21:03:34.133Z,91.02
2022-10-02T21:06:16.144Z,91.34
2022-10-02T21:09:12.349Z,91.68
2022-10-02T21:11:57.854Z,91.61
2022-10-02T21:14:53.183Z,91.57
2022-10-02T21:18:04.659Z,92.06
2022-10-02T21:20:58.632Z,92.78
2022-10-02T21:23:47.839Z,93.12
2022-10-02T21:26:34.102Z,92.91
2022-10-02T21:29:26.105Z,92.81
2022-10-02T21:32:21.295Z,92.50
2022-10-02T21:35:03.500Z,92.56
2022-10-02T21:37:46.212Z,92.57
2022-10-02T21:40:42.417Z,92.85
2022-10-02T21:43:46.943Z,92.62
2022-10-02T21:46:47.118Z,92.72
2022-10-02T21:49:53.892Z,92.91
2022-10-02T21:53:07.936Z,92.50
2022-10-02T21:56:12.693Z,92.71
2022-10-02T21:59:20.439Z,92.74
2022-10-02T22:02:16.530Z,92.61
2022-10-02T22:05:09.525Z,92.79
2022-10-02T22:07:45.566Z,92.80
2022-10-02T22:10:20.544Z,92.83
2022-10-02T22:12:59.504Z,92.69
2022-10-02T22:15:39.021Z,92.91
2022-10-02T22:18:15.316Z,92.96
2022-10-02T22:21:04.713Z,92.57
2022-10-02T22:23:42.473Z,92.50
2022-10-02T22:26:27.561Z,92.66
2022-10-02T22:29:00.079Z,92.81
2022-10-02T22:32:17.185Z,92.98
2022-10-02T22:34:56.463Z,92.86
2022-10-02T22:37:33.766Z,92.91
2022-10-02T22:40:06.025Z,93.04
2022-10-02T22:42:40.474Z,93.17
2022-10-02T22:45:20.289Z,93.52
2022-10-02T22:47:58.865Z,93.51
2022-10-02T22:50:33.313Z,93.77
2022-10-02T22:53:11.330Z,93.72
2022-10-02T22:55:48.334Z,93.97
2022-10-02T22:58:22.017Z,93.74
2022-10-02T23:00:59.855Z,93.30
2022-10-02T23:03:37.561Z,93.02
2022-10-02T23:06:12.487Z,92.73
2022-10-02T23:08:48.435Z,92.59
2022-10-02T23:11:19.552Z,93.30
2022-10-02T23:13:53.347Z,92.70
2022-10-02T23:16:26.828Z,92.40
2022-10-02T23:19:01.756Z,92.37
2022-10-02T23:21:39.163Z,92.79
2022-10-02T23:24:24.269Z,92.92
2022-10-02T23:26:55.457Z,93.24
2022-10-02T23:29:31.944Z,93.11
2022-10-02T23:32:05.969Z,92.78
2022-10-02T23:34:43.304Z,92.78
2022-10-02T23:37:18.700Z,92.75
2022-10-02T23:39:53.062Z,93.06
2022-10-02T23:42:26.912Z,92.98
2022-10-02T23:45:00.743Z,93.08
2022-10-02T23:47:39.113Z,92.98
2022-10-02T23:50:19.543Z,92.73
2022-10-02T23:53:04.129Z,92.93
2022-10-02T23:55:50.174Z,93.33
2022-10-02T23:58:52.874Z,93.09
